Bar Harbor, Maine
Current Conditions -  °F | °C
As of 8:35 AM on Thursday 23 Oct 2014 (Local Time) from KBHB Reporting Station
Overcast Overcast  
Wind Chill: 52°   Ceiling: 1000
Heat Index: 52°   Visibility: 10mi
Dew Point: 50°   Wind: 20mph
Humidity: 94%   Direction: 50°NE
Pressure: 29.88"   Gusts: 28mph
Location:  44.39°N, 68.2°W
Report Text: KBHB 231235Z AUTO 05017G24KT 10SM OVC010 11/10 A2988 RMK AO1 P0006
Loading
Personal Weather Stations






























Interactive Weather Map New forecast layout! Learn more

10-Day Weather Forecast

Advertisements
Track Severe Weather on mobile